createdAt,value
2018-07-09T00:00:50.030Z,56.77
2018-07-09T00:03:17.571Z,57.88
2018-07-09T00:05:46.474Z,58.39
2018-07-09T00:08:14.699Z,58.45
2018-07-09T00:11:02.134Z,58.70
2018-07-09T00:13:30.141Z,58.68
2018-07-09T00:15:57.956Z,59.02
2018-07-09T00:18:25.570Z,59.64
2018-07-09T00:20:53.232Z,59.82
2018-07-09T00:23:20.771Z,59.78
2018-07-09T00:25:49.259Z,59.78
2018-07-09T00:28:17.894Z,59.63
2018-07-09T00:30:45.490Z,60.16
2018-07-09T00:33:13.122Z,60.49
2018-07-09T00:35:40.701Z,60.63
2018-07-09T00:38:08.238Z,60.45
2018-07-09T00:40:35.794Z,61.11
2018-07-09T00:43:03.436Z,60.92
2018-07-09T00:45:31.079Z,61.62
2018-07-09T00:47:58.674Z,61.13
2018-07-09T00:50:26.326Z,61.71
2018-07-09T00:52:53.871Z,61.75
2018-07-09T00:55:21.532Z,61.53
2018-07-09T00:57:49.759Z,61.51
2018-07-09T01:00:17.323Z,61.52
2018-07-09T01:02:44.965Z,60.68
2018-07-09T01:05:12.502Z,60.74
2018-07-09T01:07:40.100Z,60.84
2018-07-09T01:10:07.703Z,61.06
2018-07-09T01:12:35.273Z,61.71
2018-07-09T01:15:02.835Z,61.04
2018-07-09T01:17:30.393Z,60.35
2018-07-09T01:19:57.990Z,61.39
2018-07-09T01:22:25.566Z,61.62
2018-07-09T01:24:53.178Z,58.97
2018-07-09T01:27:20.726Z,57.39
2018-07-09T01:29:48.337Z,57.66
2018-07-09T01:32:15.931Z,58.49
2018-07-09T01:34:43.476Z,56.95
2018-07-09T01:37:11.024Z,57.14
2018-07-09T01:39:38.585Z,57.05
2018-07-09T01:42:06.147Z,56.42
2018-07-09T01:44:33.668Z,55.83
2018-07-09T01:47:01.219Z,56.12
2018-07-09T01:49:28.750Z,56.31
2018-07-09T01:51:56.325Z,54.87
2018-07-09T01:54:23.950Z,54.81
2018-07-09T01:56:51.503Z,55.71
2018-07-09T01:59:19.047Z,55.26
2018-07-09T02:01:46.619Z,56.06
2018-07-09T02:04:14.142Z,56.04
2018-07-09T02:06:41.682Z,55.96
2018-07-09T02:09:09.347Z,56.13
2018-07-09T02:11:37.486Z,57.40
2018-07-09T02:14:05.034Z,58.12
2018-07-09T02:16:32.666Z,58.73
2018-07-09T02:19:00.218Z,58.43
2018-07-09T02:21:27.750Z,58.22
2018-07-09T02:23:55.506Z,56.22
2018-07-09T02:26:23.118Z,57.79
2018-07-09T02:28:50.653Z,57.50
2018-07-09T02:31:18.226Z,57.18
2018-07-09T02:33:45.775Z,57.10
2018-07-09T02:36:13.350Z,56.52
2018-07-09T02:38:40.918Z,56.88
2018-07-09T02:41:08.455Z,56.67
2018-07-09T02:43:36.010Z,56.38
2018-07-09T02:46:03.603Z,56.61
2018-07-09T02:48:31.162Z,56.43
2018-07-09T02:50:58.686Z,56.38
2018-07-09T02:53:26.270Z,56.34
2018-07-09T02:55:53.826Z,55.71
2018-07-09T02:58:21.355Z,55.66
2018-07-09T03:00:48.997Z,55.18
2018-07-09T03:03:16.482Z,55.44
2018-07-09T03:05:44.039Z,55.64
2018-07-09T03:08:11.625Z,55.80
2018-07-09T03:10:39.178Z,56.37
2018-07-09T03:13:06.742Z,56.46
2018-07-09T03:15:34.299Z,56.24
2018-07-09T03:18:01.906Z,56.37
2018-07-09T03:20:29.454Z,55.50
2018-07-09T03:22:57.058Z,56.00
2018-07-09T03:25:24.614Z,56.36
2018-07-09T03:27:52.153Z,56.65
2018-07-09T03:30:19.742Z,56.25
2018-07-09T03:32:47.291Z,56.16
2018-07-09T03:35:14.842Z,56.50
2018-07-09T03:37:42.419Z,56.26
2018-07-09T03:40:09.992Z,56.95
2018-07-09T03:42:37.574Z,57.00
2018-07-09T03:45:05.159Z,57.01
2018-07-09T03:47:32.686Z,57.91
2018-07-09T03:50:00.238Z,57.44
2018-07-09T03:52:27.846Z,57.68
2018-07-09T03:54:55.455Z,57.55
2018-07-09T03:57:23.019Z,57.47
2018-07-09T03:59:50.619Z,57.62
2018-07-09T04:02:18.170Z,57.77
2018-07-09T04:04:45.751Z,58.28
2018-07-09T04:07:13.336Z,58.08
2018-07-09T04:09:40.871Z,58.20
2018-07-09T04:12:08.435Z,57.94
2018-07-09T04:14:36.065Z,57.46
2018-07-09T04:17:03.595Z,57.42
2018-07-09T04:19:31.126Z,57.25
2018-07-09T04:21:58.746Z,57.43
2018-07-09T04:24:26.282Z,57.22
2018-07-09T04:26:54.199Z,57.09
2018-07-09T04:29:21.799Z,56.33
2018-07-09T04:31:49.406Z,56.15
2018-07-09T04:34:16.947Z,56.04
2018-07-09T04:36:44.502Z,55.57
2018-07-09T04:39:12.048Z,55.23
2018-07-09T04:41:39.598Z,54.95
2018-07-09T04:44:07.182Z,55.64
2018-07-09T04:46:34.736Z,55.81
2018-07-09T04:49:02.279Z,55.82
2018-07-09T04:51:29.894Z,56.29
2018-07-09T04:53:57.635Z,56.48
2018-07-09T04:56:25.812Z,57.24
2018-07-09T04:58:53.462Z,57.14
2018-07-09T05:01:20.998Z,56.92
2018-07-09T05:03:48.550Z,57.08
2018-07-09T05:06:16.154Z,56.32
2018-07-09T05:08:43.694Z,56.67
2018-07-09T05:11:11.251Z,56.70
2018-07-09T05:13:38.819Z,57.36
2018-07-09T05:16:06.705Z,56.41
2018-07-09T05:18:34.238Z,56.60
2018-07-09T05:21:01.802Z,56.45
2018-07-09T05:23:29.376Z,55.91
2018-07-09T05:25:56.934Z,56.04
2018-07-09T05:28:24.496Z,56.37
2018-07-09T05:30:52.033Z,55.63
2018-07-09T05:33:19.616Z,55.03
2018-07-09T05:35:47.247Z,54.83
2018-07-09T05:38:14.810Z,54.18
2018-07-09T05:40:42.473Z,54.14
2018-07-09T05:43:10.170Z,54.53
2018-07-09T05:45:37.778Z,53.69
2018-07-09T05:48:05.655Z,53.64
2018-07-09T05:50:33.271Z,52.83
2018-07-09T05:53:00.831Z,52.21
2018-07-09T05:55:28.384Z,51.79
2018-07-09T05:57:55.966Z,51.52
2018-07-09T06:00:23.582Z,51.15
2018-07-09T06:02:51.137Z,51.40
2018-07-09T06:05:19.862Z,51.50
2018-07-09T06:07:47.442Z,51.70
2018-07-09T06:10:15.052Z,51.77
2018-07-09T06:12:42.635Z,51.36
2018-07-09T06:15:10.170Z,51.13
2018-07-09T06:17:37.733Z,51.52
2018-07-09T06:20:06.152Z,51.56
2018-07-09T06:22:33.713Z,51.05
2018-07-09T06:25:01.272Z,51.64
2018-07-09T06:27:28.867Z,51.73
2018-07-09T06:29:56.478Z,51.77
2018-07-09T06:32:24.049Z,51.57
2018-07-09T06:34:51.630Z,51.33
2018-07-09T06:37:19.202Z,51.00
2018-07-09T06:39:46.764Z,51.76
2018-07-09T06:42:14.322Z,50.96
2018-07-09T06:44:41.922Z,49.55
2018-07-09T06:47:09.701Z,48.81
2018-07-09T06:49:37.299Z,48.54
2018-07-09T06:52:04.967Z,48.00
2018-07-09T06:54:32.494Z,47.65
2018-07-09T06:57:00.167Z,47.64
2018-07-09T06:59:27.730Z,47.21
2018-07-09T07:01:55.280Z,47.27
2018-07-09T07:04:22.868Z,47.34
2018-07-09T07:06:50.451Z,47.16
2018-07-09T07:09:17.989Z,47.39
2018-07-09T07:11:45.569Z,46.61
2018-07-09T07:14:13.113Z,45.93
2018-07-09T07:16:40.710Z,44.35
2018-07-09T07:19:08.274Z,42.99
2018-07-09T07:21:35.826Z,43.00
2018-07-09T07:24:03.365Z,42.61
2018-07-09T07:26:30.974Z,42.91
2018-07-09T07:28:58.586Z,43.47
2018-07-09T07:31:26.183Z,43.39
2018-07-09T07:33:53.807Z,42.92
2018-07-09T07:36:21.345Z,43.10
2018-07-09T07:38:48.901Z,42.83
2018-07-09T07:41:16.470Z,42.41
2018-07-09T07:43:44.038Z,42.40
2018-07-09T07:46:11.663Z,42.69
2018-07-09T07:48:39.363Z,43.16
2018-07-09T07:51:06.917Z,43.77
2018-07-09T07:53:34.466Z,42.96
2018-07-09T07:56:02.081Z,41.87
2018-07-09T07:58:29.663Z,41.68
2018-07-09T08:00:57.218Z,40.97
2018-07-09T08:03:24.815Z,41.21
2018-07-09T08:05:52.395Z,41.24
2018-07-09T08:08:19.980Z,40.27
2018-07-09T08:10:47.582Z,39.60
2018-07-09T08:13:27.979Z,38.86
2018-07-09T08:15:42.698Z,37.76
2018-07-09T08:18:10.386Z,37.55
2018-07-09T08:20:37.987Z,37.28
2018-07-09T08:23:05.750Z,37.70
2018-07-09T08:25:33.404Z,36.55
2018-07-09T08:28:00.910Z,37.03
2018-07-09T08:30:28.531Z,35.48
2018-07-09T08:32:56.126Z,35.85
2018-07-09T08:35:23.665Z,35.83
2018-07-09T08:37:51.205Z,36.00
2018-07-09T08:40:18.815Z,35.49
2018-07-09T08:42:46.362Z,36.31
2018-07-09T08:45:13.984Z,35.60
2018-07-09T08:47:41.554Z,34.89
2018-07-09T08:50:09.126Z,33.66
2018-07-09T08:52:36.655Z,32.99
2018-07-09T08:55:04.294Z,33.26
2018-07-09T08:57:31.879Z,30.96
2018-07-09T09:00:06.330Z,31.25
2018-07-09T09:02:33.879Z,30.61
2018-07-09T09:05:01.426Z,30.63
2018-07-09T09:07:28.982Z,31.20
2018-07-09T09:09:56.596Z,31.95
2018-07-09T09:12:24.130Z,32.33
2018-07-09T09:14:51.727Z,31.45
2018-07-09T09:17:19.298Z,30.12
2018-07-09T09:19:46.841Z,29.39
2018-07-09T09:22:14.401Z,28.96
2018-07-09T09:24:41.959Z,27.01
2018-07-09T09:27:09.588Z,26.89
2018-07-09T09:29:37.177Z,26.45
2018-07-09T09:32:04.713Z,26.29
2018-07-09T09:34:32.298Z,26.21
2018-07-09T09:36:59.926Z,26.58
2018-07-09T09:39:27.453Z,26.41
2018-07-09T09:41:55.028Z,26.09
2018-07-09T09:44:23.398Z,26.99
2018-07-09T09:46:50.914Z,26.83
2018-07-09T09:49:18.526Z,27.61
2018-07-09T09:51:46.097Z,27.96
2018-07-09T09:54:13.621Z,27.01
2018-07-09T09:56:41.253Z,26.16
2018-07-09T09:59:08.822Z,26.41
2018-07-09T10:01:36.337Z,26.79
2018-07-09T10:04:03.917Z,26.97
2018-07-09T10:06:31.510Z,26.94
2018-07-09T10:08:59.050Z,26.25
2018-07-09T10:11:26.602Z,25.96
2018-07-09T10:13:54.183Z,25.62
2018-07-09T10:16:21.781Z,25.84
2018-07-09T10:18:49.342Z,25.65
2018-07-09T10:21:16.918Z,25.80
2018-07-09T10:23:44.470Z,26.00
2018-07-09T10:26:12.012Z,25.87
2018-07-09T10:28:39.614Z,25.68
2018-07-09T10:31:07.224Z,25.01
2018-07-09T10:33:34.794Z,24.20
2018-07-09T10:36:02.452Z,24.13
2018-07-09T10:38:30.007Z,24.06
2018-07-09T10:40:57.590Z,23.95
2018-07-09T10:43:25.162Z,23.84
2018-07-09T10:45:52.683Z,23.37
2018-07-09T10:48:20.227Z,23.35
2018-07-09T10:50:47.826Z,23.11
2018-07-09T10:53:15.390Z,22.68
2018-07-09T10:55:42.974Z,23.67
2018-07-09T10:58:10.543Z,24.50
2018-07-09T11:00:38.162Z,23.30
2018-07-09T11:03:05.959Z,23.17
2018-07-09T11:05:33.539Z,22.54
2018-07-09T11:08:01.134Z,21.42
2018-07-09T11:10:28.698Z,21.41
2018-07-09T11:12:56.309Z,20.39
2018-07-09T11:15:23.865Z,20.07
2018-07-09T11:17:51.423Z,20.85
2018-07-09T11:20:19.070Z,21.05
2018-07-09T11:22:46.658Z,21.75
2018-07-09T11:25:14.178Z,21.56
2018-07-09T11:27:41.835Z,20.19
2018-07-09T11:30:09.454Z,21.15
2018-07-09T11:32:37.041Z,21.95
2018-07-09T11:35:04.628Z,21.19
2018-07-09T11:37:32.178Z,20.50
2018-07-09T11:39:59.962Z,19.46
2018-07-09T11:42:27.747Z,18.88
2018-07-09T11:44:55.362Z,19.01
2018-07-09T11:47:22.906Z,19.53
2018-07-09T11:49:50.484Z,21.20
2018-07-09T11:52:18.031Z,21.34
2018-07-09T11:54:45.554Z,22.21
2018-07-09T11:57:13.155Z,24.36
2018-07-09T11:59:40.705Z,23.37
2018-07-09T12:02:08.246Z,21.82
2018-07-09T12:04:35.830Z,20.70
2018-07-09T12:07:03.409Z,19.65
2018-07-09T12:09:31.265Z,18.46
2018-07-09T12:11:58.865Z,19.23
2018-07-09T12:14:26.413Z,19.67
2018-07-09T12:16:53.983Z,18.78
2018-07-09T12:19:21.579Z,18.54
2018-07-09T12:21:49.123Z,19.01
2018-07-09T12:24:16.658Z,18.67
2018-07-09T12:26:44.271Z,18.40
2018-07-09T12:29:12.005Z,17.39
2018-07-09T12:31:39.429Z,18.01
2018-07-09T12:34:07.188Z,17.70
2018-07-09T12:36:34.752Z,16.50
2018-07-09T12:39:02.397Z,15.78
2018-07-09T12:41:29.980Z,15.42
2018-07-09T12:43:57.533Z,15.45
2018-07-09T12:46:25.114Z,16.99
2018-07-09T12:48:52.716Z,17.30
2018-07-09T12:51:20.281Z,17.29
2018-07-09T12:53:47.823Z,18.96
2018-07-09T12:56:15.385Z,20.28
2018-07-09T12:58:42.942Z,21.38
2018-07-09T13:01:10.529Z,22.03
2018-07-09T13:03:38.118Z,23.33
2018-07-09T13:06:05.694Z,23.78
2018-07-09T13:08:33.269Z,22.66
2018-07-09T13:11:00.842Z,20.71
2018-07-09T13:13:28.397Z,19.76
2018-07-09T13:15:55.962Z,17.37
2018-07-09T13:18:23.563Z,16.16
2018-07-09T13:20:51.149Z,15.42
2018-07-09T13:23:19.330Z,14.52
2018-07-09T13:25:46.920Z,14.52
2018-07-09T13:28:14.478Z,13.95
2018-07-09T13:30:42.058Z,14.66
2018-07-09T13:33:09.685Z,13.90
2018-07-09T13:35:37.346Z,13.45
2018-07-09T13:38:05.007Z,14.00
2018-07-09T13:40:33.057Z,13.55
2018-07-09T13:43:00.678Z,13.51
2018-07-09T13:45:28.302Z,13.10
2018-07-09T13:47:55.950Z,13.55
2018-07-09T13:50:23.583Z,12.79
2018-07-09T13:52:51.193Z,13.08
2018-07-09T13:55:18.762Z,13.25
2018-07-09T13:57:46.425Z,12.82
2018-07-09T14:00:14.026Z,12.75
2018-07-09T14:02:41.569Z,12.92
2018-07-09T14:05:09.120Z,12.85
2018-07-09T14:07:36.667Z,12.43
2018-07-09T14:10:04.315Z,12.26
2018-07-09T14:12:31.856Z,12.54
2018-07-09T14:14:59.371Z,12.04
2018-07-09T14:17:27.287Z,12.90
2018-07-09T14:20:14.903Z,13.12
2018-07-09T14:22:42.518Z,12.84
2018-07-09T14:25:10.078Z,12.59
2018-07-09T14:27:38.078Z,12.95
2018-07-09T14:30:05.720Z,11.84
2018-07-09T14:32:33.298Z,12.03
2018-07-09T14:35:00.829Z,11.77
2018-07-09T14:37:28.646Z,11.72
2018-07-09T14:39:56.191Z,11.44
2018-07-09T14:42:23.738Z,11.75
2018-07-09T14:44:51.423Z,11.22
2018-07-09T14:47:19.346Z,11.39
2018-07-09T14:49:46.869Z,11.71
2018-07-09T14:52:14.426Z,11.89
2018-07-09T14:54:46.133Z,11.61
2018-07-09T14:57:13.759Z,11.48
2018-07-09T14:59:41.288Z,12.02
2018-07-09T15:02:09.119Z,11.86
2018-07-09T15:04:36.714Z,12.16
2018-07-09T15:07:04.623Z,12.37
2018-07-09T15:09:32.207Z,13.22
2018-07-09T15:11:59.814Z,13.45
2018-07-09T15:14:27.349Z,13.42
2018-07-09T15:16:54.950Z,13.96
2018-07-09T15:19:22.963Z,14.29
2018-07-09T15:21:50.813Z,14.16
2018-07-09T15:24:18.363Z,14.82
2018-07-09T15:26:45.947Z,15.83
2018-07-09T15:29:13.539Z,15.67
2018-07-09T15:31:52.486Z,16.76
2018-07-09T15:34:20.561Z,16.33
2018-07-09T15:36:48.100Z,16.71
2018-07-09T15:39:15.729Z,17.65
2018-07-09T15:41:43.262Z,17.81
2018-07-09T15:44:10.806Z,18.28
2018-07-09T15:46:38.369Z,18.96
2018-07-09T15:49:05.927Z,19.27
2018-07-09T15:51:33.441Z,18.89
2018-07-09T15:54:01.075Z,19.04
2018-07-09T15:56:28.887Z,19.08
2018-07-09T15:58:56.965Z,19.32
2018-07-09T16:01:24.564Z,19.60
2018-07-09T16:03:52.145Z,19.98
2018-07-09T16:06:20.055Z,20.08
2018-07-09T16:08:47.607Z,20.07
2018-07-09T16:11:15.282Z,20.80
2018-07-09T16:13:42.832Z,21.18
2018-07-09T16:16:10.401Z,21.79
2018-07-09T16:18:38.169Z,21.34
2018-07-09T16:21:06.206Z,22.22
2018-07-09T16:23:33.827Z,22.69
2018-07-09T16:26:01.415Z,23.27
2018-07-09T16:28:28.980Z,23.51
2018-07-09T16:30:56.606Z,23.22
2018-07-09T16:33:24.179Z,23.46
2018-07-09T16:35:51.781Z,23.65
2018-07-09T16:38:19.567Z,24.46
2018-07-09T16:40:47.130Z,24.21
2018-07-09T16:43:14.686Z,24.01
2018-07-09T16:45:42.240Z,23.92
2018-07-09T16:48:09.782Z,24.17
2018-07-09T16:50:37.359Z,24.30
2018-07-09T16:53:04.987Z,25.20
2018-07-09T16:55:32.575Z,25.14
2018-07-09T16:58:00.131Z,25.77
2018-07-09T17:00:27.715Z,25.54
2018-07-09T17:02:55.278Z,25.12
2018-07-09T17:05:22.819Z,25.42
2018-07-09T17:07:50.451Z,26.28
2018-07-09T17:10:17.982Z,26.47
2018-07-09T17:12:45.555Z,27.32
2018-07-09T17:15:13.123Z,27.75
2018-07-09T17:17:40.694Z,28.38
2018-07-09T17:20:08.272Z,29.00
2018-07-09T17:22:35.886Z,28.94
2018-07-09T17:25:03.475Z,29.63
2018-07-09T17:27:31.020Z,29.98
2018-07-09T17:29:58.589Z,30.25
2018-07-09T17:32:26.206Z,30.51
2018-07-09T17:34:53.781Z,30.50
2018-07-09T17:37:21.362Z,30.65
2018-07-09T17:39:48.925Z,31.19
2018-07-09T17:42:16.462Z,31.20
2018-07-09T17:44:44.047Z,31.79
2018-07-09T17:47:11.596Z,31.14
2018-07-09T17:49:39.186Z,31.53
2018-07-09T17:52:06.751Z,32.30
2018-07-09T17:54:34.267Z,32.15
2018-07-09T17:57:01.902Z,32.93
2018-07-09T17:59:29.470Z,33.45
2018-07-09T18:01:57.014Z,33.62
2018-07-09T18:04:24.542Z,33.94
2018-07-09T18:06:52.128Z,33.80
2018-07-09T18:09:19.898Z,34.19
2018-07-09T18:11:47.433Z,33.93
2018-07-09T18:14:15.034Z,34.26
2018-07-09T18:16:42.618Z,34.20
2018-07-09T18:19:10.187Z,34.15
2018-07-09T18:21:37.787Z,34.33
2018-07-09T18:24:05.483Z,34.45
2018-07-09T18:26:33.042Z,34.82
2018-07-09T18:29:00.608Z,34.98
2018-07-09T18:31:28.211Z,34.93
2018-07-09T18:33:56.659Z,34.89
2018-07-09T18:36:24.304Z,35.10
2018-07-09T18:38:51.875Z,34.81
2018-07-09T18:41:19.434Z,35.20
2018-07-09T18:43:47.014Z,35.08
2018-07-09T18:46:14.634Z,35.47
2018-07-09T18:48:42.254Z,35.91
2018-07-09T18:51:09.815Z,35.74
2018-07-09T18:53:37.386Z,35.84
2018-07-09T18:56:05.002Z,36.30
2018-07-09T18:58:32.789Z,36.03
2018-07-09T19:01:00.249Z,36.10
2018-07-09T19:03:27.799Z,36.63
2018-07-09T19:06:35.556Z,36.80
2018-07-09T19:09:03.414Z,37.41
2018-07-09T19:11:31.054Z,36.98
2018-07-09T19:13:58.767Z,37.49
2018-07-09T19:16:26.461Z,37.65
2018-07-09T19:20:01.043Z,37.49
2018-07-09T19:22:29.168Z,38.21
2018-07-09T19:24:55.526Z,38.10
2018-07-09T19:27:21.890Z,38.38
2018-07-09T19:29:48.242Z,38.25
2018-07-09T19:32:14.585Z,38.75
2018-07-09T19:34:40.988Z,38.51
2018-07-09T19:37:07.491Z,38.92
2018-07-09T19:39:33.704Z,38.71
2018-07-09T19:42:00.064Z,39.14
2018-07-09T19:44:26.402Z,40.00
2018-07-09T19:46:52.741Z,40.44
2018-07-09T19:49:19.117Z,40.04
2018-07-09T19:51:45.463Z,40.75
2018-07-09T19:54:11.794Z,40.48
2018-07-09T19:56:38.153Z,41.52
2018-07-09T19:59:04.489Z,41.17
2018-07-09T20:01:30.836Z,41.55
2018-07-09T20:03:57.215Z,41.12
2018-07-09T20:06:23.543Z,41.40
2018-07-09T20:08:55.495Z,42.15
2018-07-09T20:11:27.310Z,42.21
2018-07-09T20:14:08.186Z,41.74
2018-07-09T20:16:39.948Z,42.42
2018-07-09T20:19:06.903Z,42.73
2018-07-09T20:21:33.234Z,42.84
2018-07-09T20:23:59.778Z,42.68
2018-07-09T20:26:26.118Z,43.12
2018-07-09T20:28:52.538Z,42.93
2018-07-09T20:31:19.474Z,43.45
2018-07-09T20:33:46.096Z,43.35
2018-07-09T20:36:12.637Z,42.84
2018-07-09T20:38:39.001Z,43.14
2018-07-09T20:41:05.377Z,43.13
2018-07-09T20:43:31.738Z,43.06
2018-07-09T20:45:58.112Z,43.86
2018-07-09T20:48:24.470Z,43.95
2018-07-09T20:50:50.793Z,43.91
2018-07-09T20:53:17.162Z,44.47
2018-07-09T20:55:43.510Z,43.94
2018-07-09T20:58:09.833Z,44.39
2018-07-09T21:00:36.207Z,44.41
2018-07-09T21:03:02.546Z,44.70
2018-07-09T21:05:28.882Z,44.73
2018-07-09T21:07:55.267Z,44.08
2018-07-09T21:10:21.686Z,44.26
2018-07-09T21:12:53.611Z,44.30
2018-07-09T21:15:20.171Z,44.67
2018-07-09T21:17:46.671Z,44.43
2018-07-09T21:20:13.091Z,44.89
2018-07-09T21:22:39.450Z,44.81
2018-07-09T21:25:05.770Z,45.04
2018-07-09T21:27:32.092Z,45.25
2018-07-09T21:29:58.530Z,45.22
2018-07-09T21:32:24.871Z,44.95
2018-07-09T21:34:51.197Z,45.49
2018-07-09T21:37:17.580Z,45.50
2018-07-09T21:39:43.926Z,45.65
2018-07-09T21:42:10.463Z,45.03
2018-07-09T21:44:36.855Z,45.38
2018-07-09T21:47:03.182Z,45.45
2018-07-09T21:49:29.583Z,45.46
2018-07-09T21:51:55.954Z,45.64
2018-07-09T21:54:22.287Z,46.11
2018-07-09T21:56:48.625Z,46.35
2018-07-09T21:59:15.007Z,46.01
2018-07-09T22:01:41.368Z,45.69
2018-07-09T22:04:07.698Z,45.54
2018-07-09T22:06:34.090Z,45.90
2018-07-09T22:09:00.437Z,45.53
2018-07-09T22:11:26.768Z,45.46
2018-07-09T22:13:53.143Z,46.27
2018-07-09T22:16:19.518Z,46.22
2018-07-09T22:18:45.858Z,46.26
2018-07-09T22:21:12.281Z,46.13
2018-07-09T22:23:38.606Z,45.95
2018-07-09T22:26:04.950Z,45.67
2018-07-09T22:28:31.319Z,46.04
2018-07-09T22:30:58.962Z,46.56
2018-07-09T22:33:26.470Z,46.63
2018-07-09T22:35:54.055Z,46.92
2018-07-09T22:38:21.611Z,46.79
2018-07-09T22:40:49.166Z,46.64
2018-07-09T22:43:27.902Z,46.61
2018-07-09T22:45:55.456Z,46.89
2018-07-09T22:48:23.007Z,46.99
2018-07-09T22:50:50.590Z,47.06
2018-07-09T22:53:18.181Z,46.86
2018-07-09T22:55:57.081Z,46.48
2018-07-09T22:58:24.614Z,46.77
2018-07-09T23:00:52.170Z,46.13
2018-07-09T23:03:19.800Z,46.52
2018-07-09T23:05:47.349Z,46.46
2018-07-09T23:08:14.873Z,46.60
2018-07-09T23:12:26.728Z,47.07
2018-07-09T23:17:09.658Z,47.18
2018-07-09T23:21:56.386Z,48.19
2018-07-09T23:24:23.087Z,47.93
2018-07-09T23:26:49.478Z,48.49
2018-07-09T23:29:16.088Z,48.25
2018-07-09T23:31:42.420Z,47.99
2018-07-09T23:34:08.770Z,47.79
2018-07-09T23:36:35.212Z,47.26
2018-07-09T23:39:01.599Z,47.55
2018-07-09T23:41:27.922Z,47.78
2018-07-09T23:43:54.294Z,48.06
2018-07-09T23:46:20.640Z,47.74
2018-07-09T23:48:46.974Z,47.98
2018-07-09T23:51:13.343Z,47.97
2018-07-09T23:53:39.678Z,48.39
2018-07-09T23:57:17.885Z,48.19
2018-07-09T23:59:56.624Z,47.98
